createdAt,value
2017-07-15T00:00:42.558Z,1.2
2017-07-15T00:01:42.385Z,1.2
2017-07-15T00:02:41.325Z,1.2
2017-07-15T00:03:40.645Z,1.2
2017-07-15T00:04:10.519Z,1.2
2017-07-15T00:04:41.026Z,1.2
2017-07-15T00:05:11.531Z,1.2
2017-07-15T00:05:42.168Z,1.2
2017-07-15T00:06:12.851Z,1.2
2017-07-15T00:07:37.374Z,1.2
2017-07-15T00:08:36.581Z,1.2
2017-07-15T00:09:35.524Z,1.2
2017-07-15T00:10:35.335Z,1.2
2017-07-15T00:11:33.899Z,1.2
2017-07-15T00:12:33.235Z,1.2
2017-07-15T00:13:32.695Z,1.2
2017-07-15T00:14:32.083Z,1.2
2017-07-15T00:15:31.157Z,1.2
2017-07-15T00:16:30.359Z,1.2
2017-07-15T00:17:29.680Z,1.2
2017-07-15T00:18:28.677Z,1.2
2017-07-15T00:19:28.003Z,1.2
2017-07-15T00:21:26.835Z,1.2
2017-07-15T00:22:25.394Z,1.2
2017-07-15T00:23:24.702Z,1.2
2017-07-15T00:24:23.899Z,1.2
2017-07-15T00:25:23.099Z,1.2
2017-07-15T00:26:22.425Z,1.2
2017-07-15T00:27:21.752Z,1.2
2017-07-15T00:28:20.824Z,1.2
2017-07-15T00:29:20.279Z,1.2
2017-07-15T00:30:19.220Z,1.2
2017-07-15T00:31:18.686Z,1.2
2017-07-15T00:32:17.746Z,1.2
2017-07-15T00:33:17.076Z,1.2
2017-07-15T00:34:16.265Z,1.2
2017-07-15T00:35:15.728Z,1.2
2017-07-15T00:36:14.801Z,1.2
2017-07-15T00:37:13.927Z,1.2
2017-07-15T00:38:13.236Z,1.2
2017-07-15T00:39:12.428Z,1.2
2017-07-15T00:40:11.746Z,1.2
2017-07-15T00:41:10.687Z,1.2
2017-07-15T00:42:10.124Z,1.2
2017-07-15T00:43:08.947Z,1.2
2017-07-15T00:44:08.019Z,1.2
2017-07-15T00:45:08.099Z,1.2
2017-07-15T00:46:07.181Z,1.2
2017-07-15T00:47:05.914Z,1.2
2017-07-15T00:48:05.624Z,1.2
2017-07-15T00:49:04.320Z,1.3
2017-07-15T00:51:03.085Z,1.2
2017-07-15T00:52:01.841Z,1.2
2017-07-15T00:53:01.285Z,1.3
2017-07-15T00:54:00.604Z,1.3
2017-07-15T00:55:00.185Z,1.3
2017-07-15T00:55:59.252Z,1.3
2017-07-15T00:56:58.572Z,1.3
2017-07-15T00:57:57.636Z,1.3
2017-07-15T00:58:56.727Z,1.3
2017-07-15T00:59:56.055Z,1.2
2017-07-15T01:00:55.514Z,1.3
2017-07-15T01:01:25.646Z,1.3
2017-07-15T01:01:56.287Z,1.2
2017-07-15T01:02:26.918Z,1.2
2017-07-15T01:02:57.065Z,1.3
2017-07-15T01:03:27.687Z,1.3
2017-07-15T01:04:51.921Z,1.3
2017-07-15T01:05:51.124Z,1.3
2017-07-15T01:06:50.691Z,1.3
2017-07-15T01:07:49.768Z,1.3
2017-07-15T01:08:49.098Z,1.3
2017-07-15T01:09:48.170Z,1.3
2017-07-15T01:10:47.567Z,1.3
2017-07-15T01:11:17.957Z,1.3
2017-07-15T01:11:48.089Z,1.3
2017-07-15T01:12:18.846Z,1.3
2017-07-15T01:12:48.988Z,1.3
2017-07-15T01:13:19.619Z,1.3
2017-07-15T01:14:44.230Z,1.3
2017-07-15T01:15:43.812Z,1.3
2017-07-15T01:16:42.391Z,1.3
2017-07-15T01:17:41.840Z,1.3
2017-07-15T01:18:41.172Z,1.3
2017-07-15T01:19:40.002Z,1.3
2017-07-15T01:20:39.067Z,1.3
2017-07-15T01:21:38.876Z,1.3
2017-07-15T01:22:37.819Z,1.3
2017-07-15T01:23:37.006Z,1.3
2017-07-15T01:24:35.945Z,1.3
2017-07-15T01:25:35.524Z,1.3
2017-07-15T01:26:34.852Z,1.3
2017-07-15T01:27:34.097Z,1.3
2017-07-15T01:28:33.544Z,1.3
2017-07-15T01:29:32.238Z,1.3
2017-07-15T01:30:02.624Z,1.3
2017-07-15T01:30:32.994Z,1.3
2017-07-15T01:31:03.877Z,1.3
2017-07-15T01:31:34.431Z,1.3
2017-07-15T01:32:04.185Z,1.3
2017-07-15T01:32:34.187Z,1.3
2017-07-15T01:33:29.621Z,1.3
2017-07-15T01:34:28.322Z,1.3
2017-07-15T01:35:27.906Z,1.3
2017-07-15T01:36:27.113Z,1.3
2017-07-15T01:37:25.944Z,1.3
2017-07-15T01:38:25.277Z,1.3
2017-07-15T01:39:24.224Z,1.3
2017-07-15T01:40:24.053Z,1.3
2017-07-15T01:40:54.817Z,1.3
2017-07-15T01:41:25.071Z,1.3
2017-07-15T01:41:55.869Z,1.3
2017-07-15T01:42:25.870Z,1.3
2017-07-15T01:42:56.383Z,1.3
2017-07-15T01:43:27.144Z,1.3
2017-07-15T01:43:57.652Z,1.3
2017-07-15T01:45:20.256Z,1.4
2017-07-15T01:46:19.390Z,1.3
2017-07-15T01:47:18.225Z,1.3
2017-07-15T01:48:17.674Z,1.3
2017-07-15T01:49:17.377Z,1.3
2017-07-15T01:50:16.180Z,1.3
2017-07-15T01:51:14.997Z,1.3
2017-07-15T01:51:45.362Z,1.3
2017-07-15T01:52:15.861Z,1.3
2017-07-15T01:52:47.186Z,1.3
2017-07-15T01:53:17.196Z,1.3
2017-07-15T01:53:47.832Z,1.3
2017-07-15T01:54:18.466Z,1.3
2017-07-15T01:54:48.727Z,1.3
2017-07-15T01:56:10.956Z,1.3
2017-07-15T01:57:10.784Z,1.3
2017-07-15T01:58:09.596Z,1.3
2017-07-15T01:59:08.773Z,1.3
2017-07-15T02:00:07.985Z,1.3
2017-07-15T02:01:07.052Z,1.3
2017-07-15T02:02:06.741Z,1.3
2017-07-15T02:03:06.071Z,1.3
2017-07-15T02:04:05.134Z,1.3
2017-07-15T02:05:04.453Z,1.3
2017-07-15T02:06:02.999Z,1.3
2017-07-15T02:07:02.941Z,1.4
2017-07-15T02:08:01.896Z,1.3
2017-07-15T02:09:00.964Z,1.4
2017-07-15T02:10:00.157Z,1.4
2017-07-15T02:10:59.729Z,1.4
2017-07-15T02:11:58.918Z,1.4
2017-07-15T02:12:58.107Z,1.3
2017-07-15T02:13:57.687Z,1.4
2017-07-15T02:14:56.503Z,1.4
2017-07-15T02:15:56.080Z,1.4
2017-07-15T02:16:54.886Z,1.4
2017-07-15T02:17:54.080Z,1.4
2017-07-15T02:18:53.268Z,1.4
2017-07-15T02:19:52.591Z,1.4
2017-07-15T02:20:51.660Z,1.4
2017-07-15T02:21:50.720Z,1.4
2017-07-15T02:22:50.287Z,1.4
2017-07-15T02:23:49.292Z,1.4
2017-07-15T02:24:19.935Z,1.4
2017-07-15T02:24:50.568Z,1.4
2017-07-15T02:25:47.883Z,1.4
2017-07-15T02:26:47.218Z,1.4
2017-07-15T02:27:45.906Z,1.4
2017-07-15T02:28:45.875Z,1.5
2017-07-15T02:29:44.566Z,1.5
2017-07-15T02:30:43.889Z,1.5
2017-07-15T02:31:42.966Z,1.4
2017-07-15T02:32:42.285Z,1.5
2017-07-15T02:33:41.479Z,1.5
2017-07-15T02:34:40.935Z,1.5
2017-07-15T02:35:40.375Z,1.4
2017-07-15T02:36:39.446Z,1.4
2017-07-15T02:37:38.902Z,1.4
2017-07-15T02:40:35.743Z,1.4
2017-07-15T02:41:35.308Z,1.4
2017-07-15T02:42:34.759Z,1.4
2017-07-15T02:43:33.576Z,1.4
2017-07-15T02:44:33.023Z,1.4
2017-07-15T02:45:32.083Z,1.4
2017-07-15T02:46:31.287Z,1.4
2017-07-15T02:47:32.358Z,1.4
2017-07-15T02:48:30.171Z,1.4
2017-07-15T02:49:00.690Z,1.4
2017-07-15T02:49:31.194Z,1.3
2017-07-15T02:50:01.691Z,1.3
2017-07-15T02:51:27.553Z,1.4
2017-07-15T02:52:27.002Z,1.4
2017-07-15T02:54:25.080Z,1.3
2017-07-15T02:55:24.519Z,1.4
2017-07-15T02:56:23.842Z,1.3
2017-07-15T02:57:22.913Z,1.3
2017-07-15T02:58:21.971Z,1.3
2017-07-15T02:59:21.485Z,1.3
2017-07-15T02:59:51.740Z,1.3
2017-07-15T03:00:22.000Z,1.3
2017-07-15T03:00:52.249Z,1.3
2017-07-15T03:02:19.382Z,1.3
2017-07-15T03:03:18.076Z,1.3
2017-07-15T03:04:17.530Z,1.3
2017-07-15T03:05:16.365Z,1.3
2017-07-15T03:06:16.073Z,1.3
2017-07-15T03:07:15.278Z,1.3
2017-07-15T03:08:14.209Z,1.3
2017-07-15T03:09:13.907Z,1.3
2017-07-15T03:10:12.850Z,1.3
2017-07-15T03:11:12.176Z,1.3
2017-07-15T03:12:10.995Z,1.3
2017-07-15T03:13:11.131Z,1.3
2017-07-15T03:14:09.686Z,1.3
2017-07-15T03:15:09.160Z,1.3
2017-07-15T03:16:07.722Z,1.3
2017-07-15T03:17:07.805Z,1.3
2017-07-15T03:18:06.501Z,1.3
2017-07-15T03:18:37.518Z,1.3
2017-07-15T03:19:07.774Z,1.3
2017-07-15T03:19:37.773Z,1.3
2017-07-15T03:21:03.828Z,1.3
2017-07-15T03:22:03.029Z,1.3
2017-07-15T03:23:02.605Z,1.3
2017-07-15T03:24:02.059Z,1.3
2017-07-15T03:25:00.614Z,1.3
2017-07-15T03:26:00.427Z,1.3
2017-07-15T03:26:59.242Z,1.3
2017-07-15T03:27:58.562Z,1.3
2017-07-15T03:28:29.786Z,1.3
2017-07-15T03:28:59.671Z,1.3
2017-07-15T03:29:29.667Z,1.3
2017-07-15T03:30:00.177Z,1.3
2017-07-15T03:30:31.063Z,1.3
2017-07-15T03:31:01.193Z,1.3
2017-07-15T03:31:31.952Z,1.3
2017-07-15T03:32:02.329Z,1.2
2017-07-15T03:32:33.340Z,1.2
2017-07-15T03:33:53.799Z,1.2
2017-07-15T03:34:53.109Z,1.2
2017-07-15T03:35:52.426Z,1.2
2017-07-15T03:36:51.991Z,1.3
2017-07-15T03:37:50.669Z,1.3
2017-07-15T03:38:49.999Z,1.2
2017-07-15T03:39:49.572Z,1.3
2017-07-15T03:40:19.590Z,1.3
2017-07-15T03:40:50.242Z,1.3
2017-07-15T03:41:21.121Z,1.3
2017-07-15T03:41:51.135Z,1.3
2017-07-15T03:42:22.137Z,1.3
2017-07-15T03:43:46.131Z,1.3
2017-07-15T03:44:44.884Z,1.2
2017-07-15T03:45:44.647Z,1.3
2017-07-15T03:46:43.449Z,1.3
2017-07-15T03:47:42.513Z,1.3
2017-07-15T03:48:42.452Z,1.2
2017-07-15T03:49:41.145Z,1.2
2017-07-15T03:50:40.344Z,1.2
2017-07-15T03:51:39.789Z,1.2
2017-07-15T03:52:38.861Z,1.2
2017-07-15T03:53:38.172Z,1.2
2017-07-15T03:54:37.622Z,1.2
2017-07-15T03:55:37.082Z,1.2
2017-07-15T03:56:35.904Z,1.2
2017-07-15T03:57:35.351Z,1.2
2017-07-15T03:58:33.910Z,1.2
2017-07-15T03:59:33.608Z,1.2
2017-07-15T04:00:32.791Z,1.2
2017-07-15T04:01:31.844Z,1.2
2017-07-15T04:02:31.030Z,1.2
2017-07-15T04:03:30.550Z,1.2
2017-07-15T04:04:29.241Z,1.2
2017-07-15T04:06:28.107Z,1.2
2017-07-15T04:07:27.056Z,1.2
2017-07-15T04:08:26.395Z,1.2
2017-07-15T04:09:26.085Z,1.2
2017-07-15T04:10:25.150Z,1.2
2017-07-15T04:11:23.836Z,1.2
2017-07-15T04:11:54.585Z,1.2
2017-07-15T04:12:24.969Z,1.2
2017-07-15T04:12:55.455Z,1.2
2017-07-15T04:13:26.093Z,1.2
2017-07-15T04:14:21.794Z,1.2
2017-07-15T04:15:20.906Z,1.2
2017-07-15T04:16:20.121Z,1.2
2017-07-15T04:17:19.191Z,1.2
2017-07-15T04:18:18.635Z,1.2
2017-07-15T04:19:17.718Z,1.2
2017-07-15T04:20:16.779Z,1.2
2017-07-15T04:21:15.981Z,1.2
2017-07-15T04:21:46.630Z,1.2
2017-07-15T04:22:16.876Z,1.2
2017-07-15T04:22:47.256Z,1.2
2017-07-15T04:23:17.652Z,1.2
2017-07-15T04:24:13.693Z,1.2
2017-07-15T04:25:12.735Z,1.2
2017-07-15T04:26:12.058Z,1.2
2017-07-15T04:28:10.757Z,1.2
2017-07-15T04:29:09.833Z,1.2
2017-07-15T04:30:09.022Z,1.2
2017-07-15T04:31:08.582Z,1.2
2017-07-15T04:32:07.393Z,1.2
2017-07-15T04:33:06.838Z,1.2
2017-07-15T04:34:06.159Z,1.2
2017-07-15T04:35:05.482Z,1.2
2017-07-15T04:36:04.055Z,1.2
2017-07-15T04:37:03.369Z,1.2
2017-07-15T04:37:33.746Z,1.2
2017-07-15T04:38:04.259Z,1.3
2017-07-15T04:38:35.021Z,1.3
2017-07-15T04:39:05.551Z,1.2
2017-07-15T04:40:01.483Z,1.2
2017-07-15T04:41:00.175Z,1.2
2017-07-15T04:41:59.506Z,1.2
2017-07-15T04:42:58.577Z,1.2
2017-07-15T04:43:58.141Z,1.3
2017-07-15T04:44:57.587Z,1.2
2017-07-15T04:45:56.662Z,1.2
2017-07-15T04:46:55.767Z,1.3
2017-07-15T04:47:55.356Z,1.3
2017-07-15T04:48:25.479Z,1.3
2017-07-15T04:48:55.983Z,1.3
2017-07-15T04:49:26.361Z,1.3
2017-07-15T04:49:57.686Z,1.3
2017-07-15T04:50:52.467Z,1.3
2017-07-15T04:51:51.906Z,1.3
2017-07-15T04:52:50.851Z,1.3
2017-07-15T04:53:50.298Z,1.3
2017-07-15T04:54:49.860Z,1.3
2017-07-15T04:55:48.857Z,1.3
2017-07-15T04:56:47.800Z,1.4
2017-07-15T04:57:47.252Z,1.3
2017-07-15T04:58:46.313Z,1.3
2017-07-15T04:59:45.508Z,1.4
2017-07-15T05:00:44.955Z,1.4
2017-07-15T05:01:43.785Z,1.4
2017-07-15T05:02:42.983Z,1.4
2017-07-15T05:03:42.431Z,1.4
2017-07-15T05:04:41.743Z,1.4
2017-07-15T05:05:40.561Z,1.4
2017-07-15T05:06:40.010Z,1.4
2017-07-15T05:07:10.268Z,1.4
2017-07-15T05:07:40.523Z,1.4
2017-07-15T05:08:11.281Z,1.4
2017-07-15T05:08:41.149Z,1.4
2017-07-15T05:09:11.779Z,1.4
2017-07-15T05:09:42.402Z,1.4
2017-07-15T05:10:36.932Z,1.4
2017-07-15T05:11:35.870Z,1.4
2017-07-15T05:12:35.189Z,1.4
2017-07-15T05:13:34.251Z,1.4
2017-07-15T05:14:33.701Z,1.5
2017-07-15T05:15:32.769Z,1.4
2017-07-15T05:16:03.160Z,1.4
2017-07-15T05:16:33.791Z,1.4
2017-07-15T05:17:04.555Z,1.4
2017-07-15T05:17:34.680Z,1.4
2017-07-15T05:18:05.444Z,1.4
2017-07-15T05:18:35.446Z,1.5
2017-07-15T05:19:06.079Z,1.5
2017-07-15T05:19:36.461Z,1.5
2017-07-15T05:20:07.085Z,1.5
2017-07-15T05:20:37.723Z,1.5
2017-07-15T05:21:08.222Z,1.5
2017-07-15T05:22:27.741Z,1.5
2017-07-15T05:23:26.434Z,1.5
2017-07-15T05:24:25.645Z,1.6
2017-07-15T05:25:25.088Z,1.6
2017-07-15T05:26:24.278Z,1.6
2017-07-15T05:27:23.785Z,1.6
2017-07-15T05:28:22.216Z,1.6
2017-07-15T05:28:52.594Z,1.6
2017-07-15T05:29:23.413Z,1.6
2017-07-15T05:29:53.537Z,1.6
2017-07-15T05:30:24.172Z,1.7
2017-07-15T05:30:54.674Z,1.7
2017-07-15T05:32:19.525Z,1.7
2017-07-15T05:33:18.857Z,1.8
2017-07-15T05:34:18.751Z,1.8
2017-07-15T05:35:17.181Z,1.8
2017-07-15T05:36:16.632Z,1.9
2017-07-15T05:37:15.690Z,1.9
2017-07-15T05:38:14.886Z,1.9
2017-07-15T05:39:14.339Z,2
2017-07-15T05:40:13.369Z,2
2017-07-15T05:41:12.821Z,2
2017-07-15T05:43:10.783Z,2.1
2017-07-15T05:44:10.361Z,2.1
2017-07-15T05:45:09.545Z,2.2
2017-07-15T05:46:08.852Z,2.2
2017-07-15T05:47:08.178Z,2.2
2017-07-15T05:48:07.112Z,2.2
2017-07-15T05:48:37.372Z,2.2
2017-07-15T05:49:08.007Z,2.2
2017-07-15T05:49:38.261Z,2.2
2017-07-15T05:50:08.714Z,2.2
2017-07-15T05:51:05.285Z,2.3
2017-07-15T05:52:04.097Z,2.3
2017-07-15T05:53:03.648Z,2.3
2017-07-15T05:54:02.205Z,2.4
2017-07-15T05:55:02.024Z,2.4
2017-07-15T05:56:00.718Z,2.4
2017-07-15T05:57:00.300Z,2.4
2017-07-15T05:57:59.750Z,2.3
2017-07-15T05:58:30.007Z,2.3
2017-07-15T05:59:00.641Z,2.3
2017-07-15T05:59:31.034Z,2.3
2017-07-15T06:00:01.275Z,2.3
2017-07-15T06:00:31.644Z,2.3
2017-07-15T06:01:02.153Z,2.2
2017-07-15T06:01:32.670Z,2.2
2017-07-15T06:02:03.435Z,2.2
2017-07-15T06:02:55.708Z,2.2
2017-07-15T06:03:55.285Z,2.2
2017-07-15T06:04:54.233Z,2.2
2017-07-15T06:05:53.301Z,2.2
2017-07-15T06:06:52.497Z,2.2
2017-07-15T06:07:51.807Z,2.2
2017-07-15T06:08:51.255Z,2.3
2017-07-15T06:09:21.390Z,2.3
2017-07-15T06:09:51.898Z,2.3
2017-07-15T06:10:22.653Z,2.3
2017-07-15T06:10:52.782Z,2.3
2017-07-15T06:11:48.851Z,2.4
2017-07-15T06:12:47.665Z,2.4
2017-07-15T06:13:46.991Z,2.4
2017-07-15T06:14:46.697Z,2.5
2017-07-15T06:15:45.384Z,2.4
2017-07-15T06:16:44.571Z,2.4
2017-07-15T06:17:43.885Z,2.4
2017-07-15T06:18:43.080Z,2.4
2017-07-15T06:19:42.268Z,2.4
2017-07-15T06:20:41.705Z,2.4
2017-07-15T06:21:41.282Z,2.4
2017-07-15T06:22:39.857Z,2.4
2017-07-15T06:23:39.040Z,2.4
2017-07-15T06:24:38.872Z,2.4
2017-07-15T06:25:09.271Z,2.4
2017-07-15T06:25:39.403Z,2.4
2017-07-15T06:26:10.034Z,2.4
2017-07-15T06:26:40.292Z,2.4
2017-07-15T06:27:36.097Z,2.4
2017-07-15T06:28:35.609Z,2.4
2017-07-15T06:30:33.792Z,2.3
2017-07-15T06:31:32.854Z,2.3
2017-07-15T06:32:32.415Z,2.3
2017-07-15T06:33:31.606Z,2.2
2017-07-15T06:34:31.069Z,2.2
2017-07-15T06:35:29.891Z,2.2
2017-07-15T06:36:29.225Z,2.2
2017-07-15T06:37:28.672Z,2.2
2017-07-15T06:38:28.001Z,2.2
2017-07-15T06:39:27.190Z,2.2
2017-07-15T06:40:26.386Z,2.2
2017-07-15T06:41:25.957Z,2.2
2017-07-15T06:42:24.782Z,2.2
2017-07-15T06:43:24.230Z,2.2
2017-07-15T06:44:23.432Z,2.2
2017-07-15T06:45:22.643Z,2.2
2017-07-15T06:46:21.710Z,2.2
2017-07-15T06:47:21.014Z,2.2
2017-07-15T06:48:20.332Z,2.2
2017-07-15T06:49:19.654Z,2.2
2017-07-15T06:50:18.726Z,2.2
2017-07-15T06:51:17.924Z,2.2
2017-07-15T06:52:17.502Z,2.2
2017-07-15T06:53:16.442Z,2.2
2017-07-15T06:54:15.891Z,2.2
2017-07-15T06:54:45.901Z,2.2
2017-07-15T06:55:16.535Z,2.2
2017-07-15T06:55:47.051Z,2.2
2017-07-15T06:56:18.067Z,2.2
2017-07-15T06:56:48.892Z,2.2
2017-07-15T06:58:12.122Z,2.3
2017-07-15T06:59:11.822Z,2.3
2017-07-15T07:00:11.139Z,2.3
2017-07-15T07:01:10.197Z,2.4
2017-07-15T07:02:09.397Z,2.3
2017-07-15T07:03:08.833Z,2.3
2017-07-15T07:04:07.889Z,2.3
2017-07-15T07:04:38.635Z,2.3
2017-07-15T07:05:08.632Z,2.3
2017-07-15T07:05:39.272Z,2.3
2017-07-15T07:06:10.026Z,2.3
2017-07-15T07:06:40.851Z,2.3
2017-07-15T07:07:10.473Z,2.3
2017-07-15T07:07:41.247Z,2.3
2017-07-15T07:08:11.513Z,2.3
2017-07-15T07:08:41.638Z,2.3
2017-07-15T07:10:03.487Z,2.3
2017-07-15T07:11:02.550Z,2.2
2017-07-15T07:12:02.125Z,2.2
2017-07-15T07:13:00.818Z,2.2
2017-07-15T07:14:00.145Z,2.2
2017-07-15T07:14:59.605Z,2.2
2017-07-15T07:15:58.681Z,2.1
2017-07-15T07:16:58.256Z,2.2
2017-07-15T07:17:28.134Z,2.2
2017-07-15T07:17:58.761Z,2.2
2017-07-15T07:18:29.134Z,2.2
2017-07-15T07:19:55.765Z,2.2
2017-07-15T07:20:55.086Z,2.2
2017-07-15T07:21:53.904Z,2.2
2017-07-15T07:22:53.152Z,2.2
2017-07-15T07:23:52.346Z,2.2
2017-07-15T07:24:51.550Z,2.2
2017-07-15T07:25:50.606Z,2.2
2017-07-15T07:26:50.485Z,2.2
2017-07-15T07:27:49.438Z,2.2
2017-07-15T07:29:47.777Z,2.2
2017-07-15T07:30:47.226Z,2.2
2017-07-15T07:31:46.300Z,2.2
2017-07-15T07:32:45.871Z,2.2
2017-07-15T07:33:44.937Z,2.2
2017-07-15T07:34:44.388Z,2.2
2017-07-15T07:35:43.083Z,2.2
2017-07-15T07:36:13.851Z,2.2
2017-07-15T07:36:43.989Z,2.2
2017-07-15T07:37:14.746Z,2.2
2017-07-15T07:38:40.878Z,2.2
2017-07-15T07:39:40.324Z,2.2
2017-07-15T07:40:39.638Z,2.3
2017-07-15T07:41:38.460Z,2.2
2017-07-15T07:42:37.652Z,2.3
2017-07-15T07:43:37.345Z,2.3
2017-07-15T07:44:35.917Z,2.3
2017-07-15T07:45:35.758Z,2.4
2017-07-15T07:46:35.078Z,2.4
2017-07-15T07:47:05.714Z,2.4
2017-07-15T07:47:35.969Z,2.3
2017-07-15T07:48:06.348Z,2.3
2017-07-15T07:49:33.553Z,2.4
2017-07-15T07:50:31.491Z,2.4
2017-07-15T07:51:30.932Z,2.3
2017-07-15T07:52:30.252Z,2.4
2017-07-15T07:53:29.452Z,2.4
2017-07-15T07:54:28.773Z,2.4
2017-07-15T07:55:28.226Z,2.3
2017-07-15T07:56:27.431Z,2.3
2017-07-15T07:57:26.754Z,2.3
2017-07-15T07:58:25.556Z,2.4
2017-07-15T07:58:55.563Z,2.4
2017-07-15T07:59:26.454Z,2.4
2017-07-15T08:00:24.145Z,2.4
2017-07-15T08:01:23.201Z,2.4
2017-07-15T08:02:22.520Z,2.5
2017-07-15T08:03:21.960Z,2.4
2017-07-15T08:04:21.536Z,2.5
2017-07-15T08:05:20.485Z,2.5
2017-07-15T08:06:19.362Z,2.5
2017-07-15T08:07:18.856Z,2.5
2017-07-15T08:08:18.290Z,2.6
2017-07-15T08:09:17.113Z,2.6
2017-07-15T08:10:16.578Z,2.6
2017-07-15T08:11:15.899Z,2.7
2017-07-15T08:12:15.107Z,2.7
2017-07-15T08:13:13.939Z,2.7
2017-07-15T08:14:14.330Z,2.8
2017-07-15T08:15:12.266Z,2.8
2017-07-15T08:16:11.959Z,2.8
2017-07-15T08:17:11.529Z,2.8
2017-07-15T08:18:10.344Z,2.8
2017-07-15T08:18:40.470Z,2.8
2017-07-15T08:19:10.993Z,2.8
2017-07-15T08:20:08.932Z,2.8
2017-07-15T08:21:08.260Z,2.8
2017-07-15T08:22:07.194Z,2.8
2017-07-15T08:23:06.524Z,2.8
2017-07-15T08:24:05.969Z,2.8
2017-07-15T08:25:05.546Z,2.8
2017-07-15T08:26:04.368Z,2.7
2017-07-15T08:27:03.694Z,2.7
2017-07-15T08:28:03.019Z,2.8
2017-07-15T08:29:01.587Z,2.8
2017-07-15T08:30:01.147Z,2.8
2017-07-15T08:31:00.211Z,2.8
2017-07-15T08:31:59.776Z,2.9
2017-07-15T08:32:59.026Z,2.9
2017-07-15T08:33:58.354Z,3
2017-07-15T08:34:57.297Z,3
2017-07-15T08:35:56.368Z,3
2017-07-15T08:36:55.688Z,3
2017-07-15T08:37:55.275Z,3.1
2017-07-15T08:38:55.159Z,3.1
2017-07-15T08:39:53.726Z,3.1
2017-07-15T08:41:52.194Z,3.2
2017-07-15T08:42:51.512Z,3.2
2017-07-15T08:43:21.897Z,3.2
2017-07-15T08:43:52.402Z,3.2
2017-07-15T08:44:23.038Z,3.2
2017-07-15T08:44:54.293Z,3.2
2017-07-15T08:45:24.745Z,3.2
2017-07-15T08:46:48.229Z,3.2
2017-07-15T08:47:47.424Z,3.3
2017-07-15T08:48:46.491Z,3.3
2017-07-15T08:49:46.182Z,3.3
2017-07-15T08:50:45.496Z,3.3
2017-07-15T08:51:44.063Z,3.3
2017-07-15T08:52:43.884Z,3.3
2017-07-15T08:53:14.646Z,3.3
2017-07-15T08:53:45.274Z,3.3
2017-07-15T08:54:15.278Z,3.3
2017-07-15T08:54:46.145Z,3.3
2017-07-15T08:55:16.150Z,3.3
2017-07-15T08:55:47.175Z,3.3
2017-07-15T08:56:17.177Z,3.3
2017-07-15T08:57:40.159Z,3.3
2017-07-15T08:58:39.742Z,3.3
2017-07-15T08:59:38.809Z,3.3
2017-07-15T09:00:37.896Z,3.3
2017-07-15T09:01:37.225Z,3.4
2017-07-15T09:02:36.282Z,3.5
2017-07-15T09:03:35.479Z,3.5
2017-07-15T09:04:34.668Z,3.6
2017-07-15T09:05:34.435Z,3.6
2017-07-15T09:06:33.139Z,3.6
2017-07-15T09:07:03.649Z,3.6
2017-07-15T09:08:32.180Z,3.6
2017-07-15T09:09:30.995Z,3.6
2017-07-15T09:10:30.453Z,3.6
2017-07-15T09:11:30.040Z,3.6
2017-07-15T09:12:28.853Z,3.6
2017-07-15T09:12:59.360Z,3.6
2017-07-15T09:14:27.243Z,3.6
2017-07-15T09:15:26.544Z,3.6
2017-07-15T09:16:25.735Z,3.5
2017-07-15T09:17:25.187Z,3.5
2017-07-15T09:18:24.520Z,3.4
2017-07-15T09:19:23.985Z,3.5
2017-07-15T09:20:22.590Z,3.4
2017-07-15T09:21:22.176Z,3.4
2017-07-15T09:22:22.058Z,3.4
2017-07-15T09:23:20.744Z,3.4
2017-07-15T09:23:50.997Z,3.4
2017-07-15T09:24:21.514Z,3.4
2017-07-15T09:24:52.145Z,3.4
2017-07-15T09:25:22.343Z,3.4
2017-07-15T09:25:52.860Z,3.4
2017-07-15T09:26:23.489Z,3.4
2017-07-15T09:26:53.626Z,3.4
2017-07-15T09:28:16.974Z,3.3
2017-07-15T09:29:16.549Z,3.2
2017-07-15T09:30:15.243Z,3.3
2017-07-15T09:31:14.697Z,3.3
2017-07-15T09:32:13.892Z,3.3
2017-07-15T09:33:13.087Z,3.4
2017-07-15T09:34:12.539Z,3.4
2017-07-15T09:34:42.676Z,3.4
2017-07-15T09:35:13.572Z,3.4
2017-07-15T09:35:43.833Z,3.4
2017-07-15T09:36:13.964Z,3.4
2017-07-15T09:36:44.713Z,3.4
2017-07-15T09:38:09.329Z,3.5
2017-07-15T09:39:08.778Z,3.6
2017-07-15T09:40:08.482Z,3.7
2017-07-15T09:41:07.298Z,3.7
2017-07-15T09:42:06.633Z,3.7
2017-07-15T09:43:05.829Z,3.8
2017-07-15T09:44:05.146Z,3.8
2017-07-15T09:45:04.076Z,3.7
2017-07-15T09:46:03.645Z,3.8
2017-07-15T09:47:02.711Z,3.9
2017-07-15T09:48:02.034Z,3.9
2017-07-15T09:49:01.352Z,4
2017-07-15T09:50:00.666Z,4
2017-07-15T09:50:59.981Z,4.1
2017-07-15T09:51:59.171Z,4.2
2017-07-15T09:52:58.486Z,4.3
2017-07-15T09:53:57.558Z,4.4
2017-07-15T09:54:56.882Z,4.4
2017-07-15T09:55:56.342Z,4.4
2017-07-15T09:56:55.290Z,4.5
2017-07-15T09:57:54.467Z,4.4
2017-07-15T09:58:53.913Z,4.3
2017-07-15T09:59:53.232Z,4.3
2017-07-15T10:01:51.942Z,4.3
2017-07-15T10:02:51.268Z,4.4
2017-07-15T10:03:50.207Z,4.4
2017-07-15T10:04:49.423Z,4.5
2017-07-15T10:05:48.465Z,4.6
2017-07-15T10:06:47.790Z,4.6
2017-07-15T10:07:18.412Z,4.6
2017-07-15T10:07:49.169Z,4.6
2017-07-15T10:08:46.218Z,4.6
2017-07-15T10:09:45.925Z,4.7
2017-07-15T10:10:45.125Z,4.6
2017-07-15T10:11:44.566Z,4.8
2017-07-15T10:12:44.601Z,4.8
2017-07-15T10:13:42.804Z,4.9
2017-07-15T10:14:42.261Z,5
2017-07-15T10:15:41.970Z,4.9
2017-07-15T10:16:40.784Z,4.9
2017-07-15T10:17:39.986Z,4.9
2017-07-15T10:18:39.181Z,4.9
2017-07-15T10:19:38.250Z,4.9
2017-07-15T10:20:37.574Z,5
2017-07-15T10:21:37.513Z,5
2017-07-15T10:22:07.634Z,5
2017-07-15T10:23:35.388Z,5
2017-07-15T10:24:35.333Z,5
2017-07-15T10:25:34.016Z,5
2017-07-15T10:26:33.778Z,5
2017-07-15T10:27:32.586Z,5.1
2017-07-15T10:28:32.413Z,5.2
2017-07-15T10:29:31.213Z,5.1
2017-07-15T10:30:30.399Z,5.2
2017-07-15T10:31:29.729Z,5.3
2017-07-15T10:32:00.619Z,5.3
2017-07-15T10:32:30.624Z,5.4
2017-07-15T10:33:01.006Z,5.4
2017-07-15T10:34:27.892Z,5.6
2017-07-15T10:35:27.094Z,5.7
2017-07-15T10:36:26.291Z,5.8
2017-07-15T10:37:25.860Z,5.8
2017-07-15T10:38:24.544Z,5.9
2017-07-15T10:39:25.192Z,5.9
2017-07-15T10:40:23.381Z,5.9
2017-07-15T10:41:22.578Z,5.9
2017-07-15T10:42:21.782Z,6
2017-07-15T10:42:52.405Z,6
2017-07-15T10:43:22.914Z,5.8
2017-07-15T10:43:53.297Z,5.8
2017-07-15T10:45:20.078Z,5.9
2017-07-15T10:46:19.409Z,5.9
2017-07-15T10:47:18.739Z,5.7
2017-07-15T10:48:18.225Z,5.7
2017-07-15T10:49:16.818Z,5.8
2017-07-15T10:50:16.622Z,5.8
2017-07-15T10:51:16.197Z,5.8
2017-07-15T10:52:14.637Z,5.7
2017-07-15T10:53:14.450Z,5.8
2017-07-15T10:54:13.647Z,5.9
2017-07-15T10:55:12.839Z,6
2017-07-15T10:56:11.895Z,6
2017-07-15T10:57:11.856Z,6.1
2017-07-15T10:58:10.797Z,6.1
2017-07-15T10:59:10.121Z,6.3
2017-07-15T11:00:09.171Z,6.4
2017-07-15T11:01:09.811Z,6.5
2017-07-15T11:02:08.000Z,6.2
2017-07-15T11:02:38.698Z,6.2
2017-07-15T11:03:08.964Z,6
2017-07-15T11:03:39.225Z,6
2017-07-15T11:04:09.736Z,6.1
2017-07-15T11:04:40.250Z,6.1
2017-07-15T11:05:11.282Z,6.1
2017-07-15T11:07:04.201Z,6.1
2017-07-15T11:08:03.888Z,6.1
2017-07-15T11:09:03.082Z,6
2017-07-15T11:10:02.411Z,6
2017-07-15T11:11:01.595Z,6
2017-07-15T11:12:01.227Z,6
2017-07-15T11:12:31.736Z,6
2017-07-15T11:13:02.120Z,6
2017-07-15T11:13:32.888Z,6
2017-07-15T11:14:03.039Z,5.9
2017-07-15T11:14:33.240Z,5.9
2017-07-15T11:15:58.233Z,5.9
2017-07-15T11:16:29.430Z,5.9
2017-07-15T11:16:59.051Z,5.8
2017-07-15T11:17:56.859Z,5.8
2017-07-15T11:18:56.056Z,5.8
2017-07-15T11:19:55.260Z,5.8
2017-07-15T11:20:54.948Z,5.8
2017-07-15T11:21:54.408Z,5.7
2017-07-15T11:22:52.972Z,5.7
2017-07-15T11:23:52.797Z,5.7
2017-07-15T11:24:22.669Z,5.7
2017-07-15T11:24:53.296Z,5.7
2017-07-15T11:25:23.932Z,5.7
2017-07-15T11:25:54.601Z,5.6
2017-07-15T11:26:25.120Z,5.6
2017-07-15T11:27:49.984Z,5.7
2017-07-15T11:28:49.434Z,5.7
2017-07-15T11:29:48.871Z,5.7
2017-07-15T11:30:48.060Z,5.7
2017-07-15T11:31:47.503Z,5.7
2017-07-15T11:32:46.445Z,5.7
2017-07-15T11:33:45.516Z,5.7
2017-07-15T11:34:45.348Z,5.7
2017-07-15T11:35:45.068Z,5.7
2017-07-15T11:36:43.772Z,5.7
2017-07-15T11:37:43.478Z,5.8
2017-07-15T11:38:42.419Z,5.8
2017-07-15T11:39:41.863Z,5.9
2017-07-15T11:40:41.057Z,5.9
2017-07-15T11:41:40.507Z,5.8
2017-07-15T11:42:39.955Z,5.8
2017-07-15T11:43:39.282Z,5.9
2017-07-15T11:44:38.105Z,5.9
2017-07-15T11:45:08.291Z,5.9
2017-07-15T11:45:38.671Z,5.9
2017-07-15T11:46:36.861Z,5.9
2017-07-15T11:47:36.186Z,6
2017-07-15T11:48:35.256Z,6
2017-07-15T11:49:35.089Z,6
2017-07-15T11:50:33.785Z,6
2017-07-15T11:51:33.599Z,6.1
2017-07-15T11:52:33.031Z,6.1
2017-07-15T11:53:32.491Z,6.2
2017-07-15T11:54:30.924Z,6.2
2017-07-15T11:55:30.755Z,6.5
2017-07-15T11:56:01.132Z,6.5
2017-07-15T11:57:29.144Z,6.9
2017-07-15T11:58:28.468Z,7
2017-07-15T11:59:27.660Z,7.1
2017-07-15T12:00:27.350Z,7.4
2017-07-15T12:01:26.411Z,7.4
2017-07-15T12:02:25.746Z,7.4
2017-07-15T12:03:24.821Z,7.4
2017-07-15T12:04:24.910Z,7.3
2017-07-15T12:05:23.917Z,7
2017-07-15T12:06:23.115Z,6.9
2017-07-15T12:06:53.869Z,6.9
2017-07-15T12:07:24.132Z,6.9
2017-07-15T12:08:22.072Z,6.9
2017-07-15T12:09:20.882Z,6.8
2017-07-15T12:10:20.085Z,6.8
2017-07-15T12:11:19.783Z,6.8
2017-07-15T12:11:50.309Z,6.8
2017-07-15T12:12:20.790Z,7.2
2017-07-15T12:13:18.224Z,7.4
2017-07-15T12:14:17.290Z,7.7
2017-07-15T12:15:17.234Z,7.8
2017-07-15T12:16:16.299Z,7.8
2017-07-15T12:17:15.750Z,7.9
2017-07-15T12:18:14.820Z,8.2
2017-07-15T12:19:14.525Z,7.8
2017-07-15T12:20:13.726Z,7.9
2017-07-15T12:21:13.298Z,7.8
2017-07-15T12:21:43.424Z,7.8
2017-07-15T12:22:14.177Z,7.9
2017-07-15T12:22:45.127Z,7.9